sensor_id;sensor_type;location;lat;lon;timestamp;P1;durP1;ratioP1;P2;durP2;ratioP2
38379;SDS011;38377;47.418;18.882;2023-04-24T00:00:41;11.50;;;6.57;;
38379;SDS011;38377;47.418;18.882;2023-04-24T00:03:07;8.02;;;5.85;;
38379;SDS011;38377;47.418;18.882;2023-04-24T00:05:33;9.38;;;6.70;;
38379;SDS011;38377;47.418;18.882;2023-04-24T00:07:58;11.18;;;6.97;;
38379;SDS011;38377;47.418;18.882;2023-04-24T00:10:25;9.90;;;6.63;;
38379;SDS011;38377;47.418;18.882;2023-04-24T00:12:50;9.27;;;6.78;;
38379;SDS011;38377;47.418;18.882;2023-04-24T00:15:16;8.10;;;6.90;;
38379;SDS011;38377;47.418;18.882;2023-04-24T00:17:42;10.32;;;7.53;;
38379;SDS011;38377;47.418;18.882;2023-04-24T00:20:07;10.95;;;6.95;;
38379;SDS011;38377;47.418;18.882;2023-04-24T00:22:35;9.15;;;7.47;;
38379;SDS011;38377;47.418;18.882;2023-04-24T00:25:01;10.52;;;7.55;;
38379;SDS011;38377;47.418;18.882;2023-04-24T00:27:26;9.95;;;7.60;;
38379;SDS011;38377;47.418;18.882;2023-04-24T00:29:52;9.70;;;7.60;;
38379;SDS011;38377;47.418;18.882;2023-04-24T00:32:17;10.32;;;7.50;;
38379;SDS011;38377;47.418;18.882;2023-04-24T00:34:43;11.10;;;7.65;;
38379;SDS011;38377;47.418;18.882;2023-04-24T00:37:09;8.57;;;7.03;;
38379;SDS011;38377;47.418;18.882;2023-04-24T00:39:36;10.02;;;7.68;;
38379;SDS011;38377;47.418;18.882;2023-04-24T00:42:02;10.80;;;7.15;;
38379;SDS011;38377;47.418;18.882;2023-04-24T00:44:30;11.23;;;7.75;;
38379;SDS011;38377;47.418;18.882;2023-04-24T00:46:57;10.70;;;7.47;;
38379;SDS011;38377;47.418;18.882;2023-04-24T00:49:24;9.02;;;7.53;;
38379;SDS011;38377;47.418;18.882;2023-04-24T00:51:49;10.82;;;7.90;;
38379;SDS011;38377;47.418;18.882;2023-04-24T00:54:16;8.63;;;7.18;;
38379;SDS011;38377;47.418;18.882;2023-04-24T00:56:42;14.95;;;8.32;;
38379;SDS011;38377;47.418;18.882;2023-04-24T00:59:10;11.55;;;8.10;;
38379;SDS011;38377;47.418;18.882;2023-04-24T01:01:37;10.15;;;7.47;;
38379;SDS011;38377;47.418;18.882;2023-04-24T01:04:07;7.88;;;6.60;;
38379;SDS011;38377;47.418;18.882;2023-04-24T01:06:35;8.40;;;6.88;;
38379;SDS011;38377;47.418;18.882;2023-04-24T01:09:04;9.63;;;6.95;;
38379;SDS011;38377;47.418;18.882;2023-04-24T01:11:33;8.30;;;7.47;;
38379;SDS011;38377;47.418;18.882;2023-04-24T01:13:58;8.27;;;7.03;;
38379;SDS011;38377;47.418;18.882;2023-04-24T01:16:25;12.48;;;7.97;;
38379;SDS011;38377;47.418;18.882;2023-04-24T01:18:50;10.48;;;9.15;;
38379;SDS011;38377;47.418;18.882;2023-04-24T01:21:16;9.63;;;7.70;;
38379;SDS011;38377;47.418;18.882;2023-04-24T01:23:45;10.85;;;8.50;;
38379;SDS011;38377;47.418;18.882;2023-04-24T01:26:12;9.35;;;8.25;;
38379;SDS011;38377;47.418;18.882;2023-04-24T01:28:39;10.43;;;8.77;;
38379;SDS011;38377;47.418;18.882;2023-04-24T01:34:17;11.32;;;9.63;;
38379;SDS011;38377;47.418;18.882;2023-04-24T01:36:43;10.25;;;8.43;;
38379;SDS011;38377;47.418;18.882;2023-04-24T01:39:11;9.63;;;8.55;;
38379;SDS011;38377;47.418;18.882;2023-04-24T01:41:37;10.98;;;8.50;;
38379;SDS011;38377;47.418;18.882;2023-04-24T01:44:02;11.15;;;9.20;;
38379;SDS011;38377;47.418;18.882;2023-04-24T01:46:28;12.77;;;9.38;;
38379;SDS011;38377;47.418;18.882;2023-04-24T01:48:56;10.75;;;9.50;;
38379;SDS011;38377;47.418;18.882;2023-04-24T01:51:24;10.95;;;9.65;;
38379;SDS011;38377;47.418;18.882;2023-04-24T01:53:50;11.05;;;9.40;;
38379;SDS011;38377;47.418;18.882;2023-04-24T01:56:16;9.85;;;8.95;;
38379;SDS011;38377;47.418;18.882;2023-04-24T01:58:43;13.20;;;8.38;;
38379;SDS011;38377;47.418;18.882;2023-04-24T02:01:09;12.88;;;9.52;;
38379;SDS011;38377;47.418;18.882;2023-04-24T02:03:40;9.18;;;8.27;;
38379;SDS011;38377;47.418;18.882;2023-04-24T02:06:06;9.70;;;8.35;;
38379;SDS011;38377;47.418;18.882;2023-04-24T02:08:31;13.50;;;8.75;;
38379;SDS011;38377;47.418;18.882;2023-04-24T02:10:57;9.15;;;8.20;;
38379;SDS011;38377;47.418;18.882;2023-04-24T02:13:22;9.68;;;8.35;;
38379;SDS011;38377;47.418;18.882;2023-04-24T02:15:48;9.38;;;7.97;;
38379;SDS011;38377;47.418;18.882;2023-04-24T02:18:14;10.93;;;8.45;;
38379;SDS011;38377;47.418;18.882;2023-04-24T02:20:40;12.57;;;9.35;;
38379;SDS011;38377;47.418;18.882;2023-04-24T02:23:06;10.45;;;9.00;;
38379;SDS011;38377;47.418;18.882;2023-04-24T02:25:32;11.48;;;8.60;;
38379;SDS011;38377;47.418;18.882;2023-04-24T02:27:58;10.38;;;9.25;;
38379;SDS011;38377;47.418;18.882;2023-04-24T02:30:24;10.07;;;8.98;;
38379;SDS011;38377;47.418;18.882;2023-04-24T02:32:50;9.70;;;8.75;;
38379;SDS011;38377;47.418;18.882;2023-04-24T02:35:16;11.30;;;8.60;;
38379;SDS011;38377;47.418;18.882;2023-04-24T02:37:42;9.85;;;8.70;;
38379;SDS011;38377;47.418;18.882;2023-04-24T02:40:08;13.02;;;9.73;;
38379;SDS011;38377;47.418;18.882;2023-04-24T02:42:34;11.65;;;9.48;;
38379;SDS011;38377;47.418;18.882;2023-04-24T02:45:00;9.15;;;8.25;;
38379;SDS011;38377;47.418;18.882;2023-04-24T02:47:25;10.48;;;9.02;;
38379;SDS011;38377;47.418;18.882;2023-04-24T02:49:51;10.43;;;8.93;;
38379;SDS011;38377;47.418;18.882;2023-04-24T02:52:17;11.93;;;8.73;;
38379;SDS011;38377;47.418;18.882;2023-04-24T02:54:43;11.50;;;8.18;;
38379;SDS011;38377;47.418;18.882;2023-04-24T02:57:08;9.35;;;8.38;;
38379;SDS011;38377;47.418;18.882;2023-04-24T02:59:34;8.88;;;8.00;;
38379;SDS011;38377;47.418;18.882;2023-04-24T03:02:00;9.13;;;7.57;;
38379;SDS011;38377;47.418;18.882;2023-04-24T03:04:25;8.98;;;7.60;;
38379;SDS011;38377;47.418;18.882;2023-04-24T03:06:51;10.55;;;8.68;;
38379;SDS011;38377;47.418;18.882;2023-04-24T03:09:20;13.75;;;8.80;;
38379;SDS011;38377;47.418;18.882;2023-04-24T03:11:48;9.70;;;7.50;;
38379;SDS011;38377;47.418;18.882;2023-04-24T03:14:14;10.43;;;7.70;;
38379;SDS011;38377;47.418;18.882;2023-04-24T03:16:40;11.88;;;7.90;;
38379;SDS011;38377;47.418;18.882;2023-04-24T03:19:06;13.50;;;8.20;;
38379;SDS011;38377;47.418;18.882;2023-04-24T03:21:32;13.77;;;8.18;;
38379;SDS011;38377;47.418;18.882;2023-04-24T03:23:58;10.07;;;7.32;;
38379;SDS011;38377;47.418;18.882;2023-04-24T03:26:24;9.52;;;7.70;;
38379;SDS011;38377;47.418;18.882;2023-04-24T03:28:49;8.38;;;7.43;;
38379;SDS011;38377;47.418;18.882;2023-04-24T03:31:15;10.50;;;7.95;;
38379;SDS011;38377;47.418;18.882;2023-04-24T03:33:41;12.85;;;8.38;;
38379;SDS011;38377;47.418;18.882;2023-04-24T03:36:07;10.43;;;8.57;;
38379;SDS011;38377;47.418;18.882;2023-04-24T03:38:33;10.23;;;9.10;;
38379;SDS011;38377;47.418;18.882;2023-04-24T03:40:58;12.00;;;9.07;;
38379;SDS011;38377;47.418;18.882;2023-04-24T03:43:24;10.60;;;8.13;;
38379;SDS011;38377;47.418;18.882;2023-04-24T03:45:52;10.05;;;8.25;;
38379;SDS011;38377;47.418;18.882;2023-04-24T03:48:18;11.85;;;8.35;;
38379;SDS011;38377;47.418;18.882;2023-04-24T03:50:43;9.35;;;8.40;;
38379;SDS011;38377;47.418;18.882;2023-04-24T03:53:09;9.90;;;8.82;;
38379;SDS011;38377;47.418;18.882;2023-04-24T03:55:35;12.23;;;8.95;;
38379;SDS011;38377;47.418;18.882;2023-04-24T03:58:01;11.05;;;9.30;;
38379;SDS011;38377;47.418;18.882;2023-04-24T04:00:26;13.20;;;9.07;;
38379;SDS011;38377;47.418;18.882;2023-04-24T04:02:52;12.63;;;9.10;;
38379;SDS011;38377;47.418;18.882;2023-04-24T04:05:18;14.18;;;9.95;;
38379;SDS011;38377;47.418;18.882;2023-04-24T04:07:44;13.25;;;10.70;;
38379;SDS011;38377;47.418;18.882;2023-04-24T04:10:10;11.38;;;10.27;;
38379;SDS011;38377;47.418;18.882;2023-04-24T04:12:35;11.05;;;9.90;;
38379;SDS011;38377;47.418;18.882;2023-04-24T04:15:01;15.23;;;11.65;;
38379;SDS011;38377;47.418;18.882;2023-04-24T04:17:27;12.02;;;10.35;;
38379;SDS011;38377;47.418;18.882;2023-04-24T04:19:52;14.13;;;11.48;;
38379;SDS011;38377;47.418;18.882;2023-04-24T04:22:18;10.75;;;9.65;;
38379;SDS011;38377;47.418;18.882;2023-04-24T04:24:44;15.10;;;11.35;;
38379;SDS011;38377;47.418;18.882;2023-04-24T04:27:11;11.13;;;9.88;;
38379;SDS011;38377;47.418;18.882;2023-04-24T04:29:37;12.70;;;10.90;;
38379;SDS011;38377;47.418;18.882;2023-04-24T04:32:03;13.57;;;9.93;;
38379;SDS011;38377;47.418;18.882;2023-04-24T04:34:29;18.30;;;10.18;;
38379;SDS011;38377;47.418;18.882;2023-04-24T04:36:57;15.95;;;10.73;;
38379;SDS011;38377;47.418;18.882;2023-04-24T04:39:25;13.82;;;11.55;;
38379;SDS011;38377;47.418;18.882;2023-04-24T04:41:53;13.27;;;11.35;;
38379;SDS011;38377;47.418;18.882;2023-04-24T04:44:19;13.68;;;11.05;;
38379;SDS011;38377;47.418;18.882;2023-04-24T04:46:44;15.60;;;11.75;;
38379;SDS011;38377;47.418;18.882;2023-04-24T04:49:11;13.52;;;11.50;;
38379;SDS011;38377;47.418;18.882;2023-04-24T04:51:36;13.13;;;11.82;;
38379;SDS011;38377;47.418;18.882;2023-04-24T04:54:02;13.35;;;11.40;;
38379;SDS011;38377;47.418;18.882;2023-04-24T04:56:28;13.15;;;11.10;;
38379;SDS011;38377;47.418;18.882;2023-04-24T04:58:53;12.90;;;11.40;;
38379;SDS011;38377;47.418;18.882;2023-04-24T05:01:19;12.93;;;10.85;;
38379;SDS011;38377;47.418;18.882;2023-04-24T05:03:46;16.50;;;11.52;;
38379;SDS011;38377;47.418;18.882;2023-04-24T05:06:11;16.40;;;12.13;;
38379;SDS011;38377;47.418;18.882;2023-04-24T05:08:37;15.93;;;11.38;;
38379;SDS011;38377;47.418;18.882;2023-04-24T05:11:03;14.13;;;11.32;;
38379;SDS011;38377;47.418;18.882;2023-04-24T05:13:28;13.15;;;11.57;;
38379;SDS011;38377;47.418;18.882;2023-04-24T05:15:54;12.25;;;10.32;;
38379;SDS011;38377;47.418;18.882;2023-04-24T05:18:20;13.50;;;10.65;;
38379;SDS011;38377;47.418;18.882;2023-04-24T05:20:45;14.55;;;11.02;;
38379;SDS011;38377;47.418;18.882;2023-04-24T05:23:11;12.60;;;10.57;;
38379;SDS011;38377;47.418;18.882;2023-04-24T05:25:37;20.58;;;11.27;;
38379;SDS011;38377;47.418;18.882;2023-04-24T05:28:04;14.52;;;11.77;;
38379;SDS011;38377;47.418;18.882;2023-04-24T05:30:30;13.25;;;11.57;;
38379;SDS011;38377;47.418;18.882;2023-04-24T05:32:55;15.90;;;10.98;;
38379;SDS011;38377;47.418;18.882;2023-04-24T05:35:21;14.70;;;11.13;;
38379;SDS011;38377;47.418;18.882;2023-04-24T05:37:47;15.60;;;11.35;;
38379;SDS011;38377;47.418;18.882;2023-04-24T05:40:12;14.25;;;10.88;;
38379;SDS011;38377;47.418;18.882;2023-04-24T05:42:38;15.85;;;11.93;;
38379;SDS011;38377;47.418;18.882;2023-04-24T05:45:04;14.48;;;12.13;;
38379;SDS011;38377;47.418;18.882;2023-04-24T05:47:30;13.57;;;11.27;;
38379;SDS011;38377;47.418;18.882;2023-04-24T05:49:56;13.73;;;10.93;;
38379;SDS011;38377;47.418;18.882;2023-04-24T05:52:22;12.98;;;11.43;;
38379;SDS011;38377;47.418;18.882;2023-04-24T05:54:47;16.20;;;11.65;;
38379;SDS011;38377;47.418;18.882;2023-04-24T05:57:13;21.45;;;14.48;;
38379;SDS011;38377;47.418;18.882;2023-04-24T05:59:40;15.43;;;11.50;;
38379;SDS011;38377;47.418;18.882;2023-04-24T06:02:06;16.67;;;10.90;;
38379;SDS011;38377;47.418;18.882;2023-04-24T06:04:32;12.73;;;10.82;;
38379;SDS011;38377;47.418;18.882;2023-04-24T06:06:58;17.77;;;11.98;;
38379;SDS011;38377;47.418;18.882;2023-04-24T06:09:25;15.57;;;11.73;;
38379;SDS011;38377;47.418;18.882;2023-04-24T06:11:51;16.80;;;13.13;;
38379;SDS011;38377;47.418;18.882;2023-04-24T06:14:22;16.63;;;13.07;;
38379;SDS011;38377;47.418;18.882;2023-04-24T06:16:48;16.15;;;12.70;;
38379;SDS011;38377;47.418;18.882;2023-04-24T06:19:13;14.68;;;12.38;;
38379;SDS011;38377;47.418;18.882;2023-04-24T06:21:39;15.18;;;12.68;;
38379;SDS011;38377;47.418;18.882;2023-04-24T06:24:05;15.77;;;13.40;;
38379;SDS011;38377;47.418;18.882;2023-04-24T06:26:31;14.27;;;12.77;;
38379;SDS011;38377;47.418;18.882;2023-04-24T06:28:56;15.10;;;13.50;;
38379;SDS011;38377;47.418;18.882;2023-04-24T06:31:24;17.00;;;13.45;;
38379;SDS011;38377;47.418;18.882;2023-04-24T06:33:49;15.32;;;12.82;;
38379;SDS011;38377;47.418;18.882;2023-04-24T06:36:15;19.33;;;13.52;;
38379;SDS011;38377;47.418;18.882;2023-04-24T06:38:42;19.70;;;13.10;;
38379;SDS011;38377;47.418;18.882;2023-04-24T06:41:07;22.65;;;18.85;;
38379;SDS011;38377;47.418;18.882;2023-04-24T06:43:33;14.75;;;13.25;;
38379;SDS011;38377;47.418;18.882;2023-04-24T06:45:59;19.00;;;17.15;;
38379;SDS011;38377;47.418;18.882;2023-04-24T06:48:25;18.23;;;11.88;;
38379;SDS011;38377;47.418;18.882;2023-04-24T06:50:51;13.55;;;12.20;;
38379;SDS011;38377;47.418;18.882;2023-04-24T06:53:17;13.90;;;11.75;;
38379;SDS011;38377;47.418;18.882;2023-04-24T06:55:43;13.00;;;11.70;;
38379;SDS011;38377;47.418;18.882;2023-04-24T06:58:12;18.17;;;11.93;;
38379;SDS011;38377;47.418;18.882;2023-04-24T07:00:38;15.18;;;12.15;;
38379;SDS011;38377;47.418;18.882;2023-04-24T07:03:03;14.07;;;11.25;;
38379;SDS011;38377;47.418;18.882;2023-04-24T07:05:32;16.35;;;11.60;;
38379;SDS011;38377;47.418;18.882;2023-04-24T07:08:00;14.02;;;12.63;;
38379;SDS011;38377;47.418;18.882;2023-04-24T07:10:26;17.80;;;15.00;;
38379;SDS011;38377;47.418;18.882;2023-04-24T07:12:53;14.35;;;12.90;;
38379;SDS011;38377;47.418;18.882;2023-04-24T07:15:21;19.75;;;14.35;;
38379;SDS011;38377;47.418;18.882;2023-04-24T07:17:46;17.25;;;12.68;;
38379;SDS011;38377;47.418;18.882;2023-04-24T07:20:12;17.95;;;13.35;;
38379;SDS011;38377;47.418;18.882;2023-04-24T07:22:39;21.05;;;13.50;;
38379;SDS011;38377;47.418;18.882;2023-04-24T07:25:05;32.92;;;21.80;;
38379;SDS011;38377;47.418;18.882;2023-04-24T07:27:32;31.30;;;21.15;;
38379;SDS011;38377;47.418;18.882;2023-04-24T07:29:58;21.50;;;17.08;;
38379;SDS011;38377;47.418;18.882;2023-04-24T07:32:23;16.02;;;11.82;;
38379;SDS011;38377;47.418;18.882;2023-04-24T07:34:49;16.88;;;14.23;;
38379;SDS011;38377;47.418;18.882;2023-04-24T07:37:15;14.60;;;11.75;;
38379;SDS011;38377;47.418;18.882;2023-04-24T07:39:42;15.57;;;11.35;;
38379;SDS011;38377;47.418;18.882;2023-04-24T07:42:08;11.30;;;10.13;;
38379;SDS011;38377;47.418;18.882;2023-04-24T07:44:34;21.08;;;11.40;;
38379;SDS011;38377;47.418;18.882;2023-04-24T07:47:01;12.38;;;10.85;;
38379;SDS011;38377;47.418;18.882;2023-04-24T07:49:26;13.27;;;10.52;;
38379;SDS011;38377;47.418;18.882;2023-04-24T07:51:53;12.43;;;9.77;;
38379;SDS011;38377;47.418;18.882;2023-04-24T07:54:18;11.55;;;10.07;;
38379;SDS011;38377;47.418;18.882;2023-04-24T07:56:44;11.75;;;9.75;;
38379;SDS011;38377;47.418;18.882;2023-04-24T07:59:10;14.15;;;9.73;;
38379;SDS011;38377;47.418;18.882;2023-04-24T08:01:36;11.05;;;9.75;;
38379;SDS011;38377;47.418;18.882;2023-04-24T08:04:02;13.88;;;10.85;;
38379;SDS011;38377;47.418;18.882;2023-04-24T08:06:29;13.75;;;10.60;;
38379;SDS011;38377;47.418;18.882;2023-04-24T08:08:58;12.18;;;9.95;;
38379;SDS011;38377;47.418;18.882;2023-04-24T08:11:25;12.38;;;10.13;;
38379;SDS011;38377;47.418;18.882;2023-04-24T08:13:51;10.88;;;9.68;;
38379;SDS011;38377;47.418;18.882;2023-04-24T08:16:16;12.10;;;9.10;;
38379;SDS011;38377;47.418;18.882;2023-04-24T08:18:42;10.10;;;8.40;;
38379;SDS011;38377;47.418;18.882;2023-04-24T08:21:08;12.15;;;9.20;;
38379;SDS011;38377;47.418;18.882;2023-04-24T08:23:34;10.82;;;9.18;;
38379;SDS011;38377;47.418;18.882;2023-04-24T08:25:59;12.65;;;9.57;;
38379;SDS011;38377;47.418;18.882;2023-04-24T08:28:25;11.68;;;8.15;;
38379;SDS011;38377;47.418;18.882;2023-04-24T08:30:52;10.38;;;8.45;;
38379;SDS011;38377;47.418;18.882;2023-04-24T08:33:20;9.32;;;8.27;;
38379;SDS011;38377;47.418;18.882;2023-04-24T08:35:47;10.13;;;8.07;;
38379;SDS011;38377;47.418;18.882;2023-04-24T08:38:15;11.10;;;8.10;;
38379;SDS011;38377;47.418;18.882;2023-04-24T08:40:42;8.73;;;7.85;;
38379;SDS011;38377;47.418;18.882;2023-04-24T08:43:08;9.55;;;8.30;;
38379;SDS011;38377;47.418;18.882;2023-04-24T08:45:35;11.43;;;9.63;;
38379;SDS011;38377;47.418;18.882;2023-04-24T08:48:01;9.98;;;8.95;;
38379;SDS011;38377;47.418;18.882;2023-04-24T08:50:29;11.23;;;8.50;;
38379;SDS011;38377;47.418;18.882;2023-04-24T08:52:55;17.50;;;9.18;;
38379;SDS011;38377;47.418;18.882;2023-04-24T08:55:22;10.73;;;8.77;;
38379;SDS011;38377;47.418;18.882;2023-04-24T08:57:50;13.70;;;8.60;;
38379;SDS011;38377;47.418;18.882;2023-04-24T09:00:21;14.68;;;8.68;;
38379;SDS011;38377;47.418;18.882;2023-04-24T09:02:47;10.57;;;8.75;;
38379;SDS011;38377;47.418;18.882;2023-04-24T09:05:16;9.60;;;8.43;;
38379;SDS011;38377;47.418;18.882;2023-04-24T09:07:44;16.98;;;7.30;;
38379;SDS011;38377;47.418;18.882;2023-04-24T09:10:15;9.43;;;6.50;;
38379;SDS011;38377;47.418;18.882;2023-04-24T09:12:41;7.70;;;6.35;;
38379;SDS011;38377;47.418;18.882;2023-04-24T09:15:09;7.07;;;6.38;;
38379;SDS011;38377;47.418;18.882;2023-04-24T09:17:35;8.60;;;6.78;;
38379;SDS011;38377;47.418;18.882;2023-04-24T09:20:01;7.50;;;6.70;;
38379;SDS011;38377;47.418;18.882;2023-04-24T09:22:29;10.45;;;7.40;;
38379;SDS011;38377;47.418;18.882;2023-04-24T09:24:59;10.45;;;7.22;;
38379;SDS011;38377;47.418;18.882;2023-04-24T09:27:32;9.75;;;8.25;;
38379;SDS011;38377;47.418;18.882;2023-04-24T09:29:59;11.05;;;8.65;;
38379;SDS011;38377;47.418;18.882;2023-04-24T09:32:25;17.35;;;8.95;;
38379;SDS011;38377;47.418;18.882;2023-04-24T09:35:11;12.45;;;8.52;;
38379;SDS011;38377;47.418;18.882;2023-04-24T09:37:39;8.82;;;7.82;;
38379;SDS011;38377;47.418;18.882;2023-04-24T09:40:07;8.77;;;7.35;;
38379;SDS011;38377;47.418;18.882;2023-04-24T09:42:43;10.23;;;7.65;;
38379;SDS011;38377;47.418;18.882;2023-04-24T09:45:10;11.20;;;7.35;;
38379;SDS011;38377;47.418;18.882;2023-04-24T09:47:39;9.70;;;6.93;;
38379;SDS011;38377;47.418;18.882;2023-04-24T09:50:15;10.10;;;7.38;;
38379;SDS011;38377;47.418;18.882;2023-04-24T09:53:24;13.02;;;7.82;;
38379;SDS011;38377;47.418;18.882;2023-04-24T09:55:33;7.63;;;6.88;;
38379;SDS011;38377;47.418;18.882;2023-04-24T09:58:06;19.15;;;8.68;;
38379;SDS011;38377;47.418;18.882;2023-04-24T10:00:33;10.98;;;8.18;;
38379;SDS011;38377;47.418;18.882;2023-04-24T10:02:59;9.80;;;8.65;;
38379;SDS011;38377;47.418;18.882;2023-04-24T10:05:28;9.52;;;7.32;;
38379;SDS011;38377;47.418;18.882;2023-04-24T10:08:00;9.07;;;8.02;;
38379;SDS011;38377;47.418;18.882;2023-04-24T10:10:33;12.63;;;8.45;;
38379;SDS011;38377;47.418;18.882;2023-04-24T10:13:06;9.32;;;8.30;;
38379;SDS011;38377;47.418;18.882;2023-04-24T10:15:34;10.18;;;8.50;;
38379;SDS011;38377;47.418;18.882;2023-04-24T10:18:00;10.25;;;8.48;;
38379;SDS011;38377;47.418;18.882;2023-04-24T10:20:28;8.68;;;7.70;;
38379;SDS011;38377;47.418;18.882;2023-04-24T10:22:56;10.23;;;8.30;;
38379;SDS011;38377;47.418;18.882;2023-04-24T10:25:23;10.45;;;8.00;;
38379;SDS011;38377;47.418;18.882;2023-04-24T10:27:51;9.77;;;7.47;;
38379;SDS011;38377;47.418;18.882;2023-04-24T10:30:18;9.10;;;8.10;;
38379;SDS011;38377;47.418;18.882;2023-04-24T10:32:44;11.50;;;9.55;;
38379;SDS011;38377;47.418;18.882;2023-04-24T10:35:13;11.23;;;9.00;;
38379;SDS011;38377;47.418;18.882;2023-04-24T10:37:42;11.67;;;9.50;;
38379;SDS011;38377;47.418;18.882;2023-04-24T10:40:17;10.63;;;8.35;;
38379;SDS011;38377;47.418;18.882;2023-04-24T10:42:47;11.10;;;8.82;;
38379;SDS011;38377;47.418;18.882;2023-04-24T10:45:17;12.68;;;9.55;;
38379;SDS011;38377;47.418;18.882;2023-04-24T10:47:53;12.07;;;9.18;;
38379;SDS011;38377;47.418;18.882;2023-04-24T10:50:29;13.88;;;9.73;;
38379;SDS011;38377;47.418;18.882;2023-04-24T10:53:07;10.18;;;8.27;;
38379;SDS011;38377;47.418;18.882;2023-04-24T10:58:08;8.95;;;6.30;;
38379;SDS011;38377;47.418;18.882;2023-04-24T11:00:38;7.47;;;4.90;;
38379;SDS011;38377;47.418;18.882;2023-04-24T11:03:06;4.85;;;4.45;;
38379;SDS011;38377;47.418;18.882;2023-04-24T11:08:23;7.38;;;5.25;;
38379;SDS011;38377;47.418;18.882;2023-04-24T11:10:54;5.43;;;4.28;;
38379;SDS011;38377;47.418;18.882;2023-04-24T11:13:21;5.18;;;3.15;;
38379;SDS011;38377;47.418;18.882;2023-04-24T11:18:39;4.03;;;3.38;;
38379;SDS011;38377;47.418;18.882;2023-04-24T11:21:17;5.68;;;3.20;;
38379;SDS011;38377;47.418;18.882;2023-04-24T11:23:44;5.45;;;3.53;;
38379;SDS011;38377;47.418;18.882;2023-04-24T11:26:11;6.07;;;3.90;;
38379;SDS011;38377;47.418;18.882;2023-04-24T11:28:43;4.05;;;2.97;;
38379;SDS011;38377;47.418;18.882;2023-04-24T11:31:56;5.20;;;2.78;;
38379;SDS011;38377;47.418;18.882;2023-04-24T11:34:07;6.85;;;3.30;;
38379;SDS011;38377;47.418;18.882;2023-04-24T11:36:32;3.60;;;3.17;;
38379;SDS011;38377;47.418;18.882;2023-04-24T11:38:59;5.85;;;3.17;;
38379;SDS011;38377;47.418;18.882;2023-04-24T11:41:26;5.88;;;3.10;;
38379;SDS011;38377;47.418;18.882;2023-04-24T11:43:53;3.50;;;2.45;;
38379;SDS011;38377;47.418;18.882;2023-04-24T11:46:20;4.75;;;3.00;;
38379;SDS011;38377;47.418;18.882;2023-04-24T11:48:46;7.13;;;3.42;;
38379;SDS011;38377;47.418;18.882;2023-04-24T11:51:13;4.43;;;3.03;;
38379;SDS011;38377;47.418;18.882;2023-04-24T11:53:39;7.18;;;2.58;;
38379;SDS011;38377;47.418;18.882;2023-04-24T11:56:05;4.43;;;2.58;;
38379;SDS011;38377;47.418;18.882;2023-04-24T11:58:40;5.63;;;2.72;;
38379;SDS011;38377;47.418;18.882;2023-04-24T12:01:06;6.07;;;3.33;;
38379;SDS011;38377;47.418;18.882;2023-04-24T12:03:32;3.60;;;2.30;;
38379;SDS011;38377;47.418;18.882;2023-04-24T12:06:10;3.33;;;2.70;;
38379;SDS011;38377;47.418;18.882;2023-04-24T12:08:37;6.07;;;2.63;;
38379;SDS011;38377;47.418;18.882;2023-04-24T12:11:03;5.95;;;3.10;;
38379;SDS011;38377;47.418;18.882;2023-04-24T12:13:32;3.78;;;2.83;;
38379;SDS011;38377;47.418;18.882;2023-04-24T12:15:58;5.22;;;3.13;;
38379;SDS011;38377;47.418;18.882;2023-04-24T12:18:24;5.00;;;3.03;;
38379;SDS011;38377;47.418;18.882;2023-04-24T12:20:51;4.60;;;2.65;;
38379;SDS011;38377;47.418;18.882;2023-04-24T12:23:27;5.13;;;2.95;;
38379;SDS011;38377;47.418;18.882;2023-04-24T12:26:00;4.72;;;3.20;;
38379;SDS011;38377;47.418;18.882;2023-04-24T12:28:34;4.22;;;2.60;;
38379;SDS011;38377;47.418;18.882;2023-04-24T12:31:01;3.67;;;2.50;;
38379;SDS011;38377;47.418;18.882;2023-04-24T12:33:26;4.70;;;2.90;;
38379;SDS011;38377;47.418;18.882;2023-04-24T12:35:52;9.00;;;2.92;;
38379;SDS011;38377;47.418;18.882;2023-04-24T12:38:21;5.25;;;2.80;;
38379;SDS011;38377;47.418;18.882;2023-04-24T12:41:04;5.75;;;3.40;;
38379;SDS011;38377;47.418;18.882;2023-04-24T12:43:31;6.35;;;2.67;;
38379;SDS011;38377;47.418;18.882;2023-04-24T12:45:58;4.68;;;2.85;;
38379;SDS011;38377;47.418;18.882;2023-04-24T12:48:24;4.55;;;2.95;;
38379;SDS011;38377;47.418;18.882;2023-04-24T12:50:51;7.82;;;3.20;;
38379;SDS011;38377;47.418;18.882;2023-04-24T12:53:16;3.72;;;3.20;;
38379;SDS011;38377;47.418;18.882;2023-04-24T12:55:42;3.38;;;3.08;;
38379;SDS011;38377;47.418;18.882;2023-04-24T12:58:10;6.68;;;3.45;;
38379;SDS011;38377;47.418;18.882;2023-04-24T13:00:35;5.40;;;3.47;;
38379;SDS011;38377;47.418;18.882;2023-04-24T13:03:02;5.47;;;3.08;;
38379;SDS011;38377;47.418;18.882;2023-04-24T13:05:28;7.15;;;3.70;;
38379;SDS011;38377;47.418;18.882;2023-04-24T13:07:53;4.75;;;3.67;;
38379;SDS011;38377;47.418;18.882;2023-04-24T13:10:19;10.23;;;3.72;;
38379;SDS011;38377;47.418;18.882;2023-04-24T13:12:45;6.30;;;4.50;;
38379;SDS011;38377;47.418;18.882;2023-04-24T13:15:11;5.25;;;3.58;;
38379;SDS011;38377;47.418;18.882;2023-04-24T13:17:37;5.85;;;3.55;;
38379;SDS011;38377;47.418;18.882;2023-04-24T13:20:03;6.55;;;4.18;;
38379;SDS011;38377;47.418;18.882;2023-04-24T13:22:29;6.95;;;3.72;;
38379;SDS011;38377;47.418;18.882;2023-04-24T13:24:55;6.18;;;4.80;;
38379;SDS011;38377;47.418;18.882;2023-04-24T13:27:21;5.15;;;4.50;;
38379;SDS011;38377;47.418;18.882;2023-04-24T13:29:47;10.30;;;5.40;;
38379;SDS011;38377;47.418;18.882;2023-04-24T13:32:12;7.53;;;5.28;;
38379;SDS011;38377;47.418;18.882;2023-04-24T13:34:38;9.10;;;5.90;;
38379;SDS011;38377;47.418;18.882;2023-04-24T13:37:04;7.47;;;6.10;;
38379;SDS011;38377;47.418;18.882;2023-04-24T13:39:30;10.40;;;7.10;;
38379;SDS011;38377;47.418;18.882;2023-04-24T13:41:56;10.38;;;7.25;;
38379;SDS011;38377;47.418;18.882;2023-04-24T13:44:22;9.77;;;7.60;;
38379;SDS011;38377;47.418;18.882;2023-04-24T13:46:50;9.98;;;8.13;;
38379;SDS011;38377;47.418;18.882;2023-04-24T13:49:19;15.32;;;8.10;;
38379;SDS011;38377;47.418;18.882;2023-04-24T13:51:45;10.05;;;8.30;;
38379;SDS011;38377;47.418;18.882;2023-04-24T13:54:11;10.20;;;8.07;;
38379;SDS011;38377;47.418;18.882;2023-04-24T13:56:38;11.38;;;8.70;;
38379;SDS011;38377;47.418;18.882;2023-04-24T13:59:07;11.30;;;9.20;;
38379;SDS011;38377;47.418;18.882;2023-04-24T14:01:33;14.98;;;9.75;;
38379;SDS011;38377;47.418;18.882;2023-04-24T14:03:59;10.32;;;9.15;;
38379;SDS011;38377;47.418;18.882;2023-04-24T14:06:25;12.00;;;8.98;;
38379;SDS011;38377;47.418;18.882;2023-04-24T14:08:51;11.32;;;8.55;;
38379;SDS011;38377;47.418;18.882;2023-04-24T14:11:17;10.55;;;9.45;;
38379;SDS011;38377;47.418;18.882;2023-04-24T14:13:44;11.00;;;9.45;;
38379;SDS011;38377;47.418;18.882;2023-04-24T14:16:10;12.55;;;9.68;;
38379;SDS011;38377;47.418;18.882;2023-04-24T14:18:36;12.50;;;10.88;;
38379;SDS011;38377;47.418;18.882;2023-04-24T14:21:02;11.75;;;9.50;;
38379;SDS011;38377;47.418;18.882;2023-04-24T14:23:28;10.63;;;9.13;;
38379;SDS011;38377;47.418;18.882;2023-04-24T14:25:54;10.77;;;9.40;;
38379;SDS011;38377;47.418;18.882;2023-04-24T14:28:20;10.77;;;8.75;;
38379;SDS011;38377;47.418;18.882;2023-04-24T14:30:46;10.77;;;9.65;;
38379;SDS011;38377;47.418;18.882;2023-04-24T14:33:13;11.05;;;9.85;;